Time;durP1;ratioP1;P1;durP2;ratioP2;P2;SDS_P1;SDS_P2;PMS_P1;PMS_P2;Temp;Humidity;BMP_temperature;BMP_pressure;BME280_temperature;BME280_humidity;BME280_pressure;Samples;Min_cycle;Max_cycle;Signal;HPM_P1;HPM_P2
2022/11/19 00:01:26;;;;;;;11.60;2.95;;;;;;;4.06;100.00;94577.31;4992958;28;20086;-72
2022/11/19 00:03:51;;;;;;;5.35;2.30;;;;;;;4.04;100.00;94574.16;4993276;28;20049;-72
2022/11/19 00:06:22;;;;;;;7.50;2.30;;;;;;;4.08;100.00;94585.63;4992753;28;20046;-73
2022/11/19 00:08:47;;;;;;;8.07;2.17;;;;;;;4.09;100.00;94582.00;4993942;28;20062;-72
2022/11/19 00:12:53;;;;;;;4.65;2.83;;;;;;;4.07;100.00;94578.88;4992701;28;20488;-72
2022/11/19 00:14:04;;;;;;;4.35;2.45;;;;;;;3.93;100.00;94574.09;4989775;28;20112;-72
2022/11/19 00:16:30;;;;;;;4.90;2.35;;;;;;;3.88;100.00;94571.47;4967076;28;20035;-73
2022/11/19 00:18:55;;;;;;;5.60;2.40;;;;;;;3.90;100.00;94569.38;4983884;28;20065;-72
2022/11/19 00:21:21;;;;;;;7.00;2.50;;;;;;;3.88;100.00;94576.69;4990733;28;20408;-72
2022/11/19 00:23:46;;;;;;;6.28;2.83;;;;;;;3.77;100.00;94565.38;4992589;28;20416;-72
2022/11/19 00:26:14;;;;;;;5.93;2.97;;;;;;;3.78;100.00;94563.59;4981091;28;20114;-72
2022/11/19 00:28:40;;;;;;;8.90;3.85;;;;;;;3.75;100.00;94564.06;4993151;28;20060;-73
2022/11/19 00:31:10;;;;;;;14.23;5.18;;;;;;;3.60;100.00;94564.75;4992653;28;20043;-72
2022/11/19 00:33:37;;;;;;;11.23;4.57;;;;;;;3.66;100.00;94562.97;4987907;28;20102;-72
2022/11/19 00:36:05;;;;;;;5.93;3.40;;;;;;;3.53;100.00;94561.56;4987588;28;20038;-72
2022/11/19 00:38:31;;;;;;;7.18;2.78;;;;;;;3.52;100.00;94563.38;4993100;28;20034;-72
2022/11/19 00:40:57;;;;;;;7.45;3.60;;;;;;;3.56;100.00;94567.06;4992288;28;20038;-72
2022/11/19 00:46:07;;;;;;;9.57;3.45;;;;;;;3.50;100.00;94569.88;4991680;28;20463;-72
2022/11/19 00:48:32;;;;;;;8.13;3.83;;;;;;;3.46;100.00;94564.34;4992428;28;20073;-73
2022/11/19 00:50:59;;;;;;;6.97;3.20;;;;;;;3.53;100.00;94571.97;4988027;28;20467;-72
2022/11/19 00:53:24;;;;;;;10.00;3.25;;;;;;;3.56;100.00;94566.28;4973983;28;20053;-73
2022/11/19 00:55:50;;;;;;;6.28;2.67;;;;;;;3.64;100.00;94568.41;4985172;28;20060;-73
2022/11/19 00:58:16;;;;;;;13.50;4.00;;;;;;;3.69;100.00;94568.44;4974249;28;20783;-72
2022/11/19 01:00:42;;;;;;;7.43;3.38;;;;;;;3.73;100.00;94566.16;4975023;28;20448;-72
2022/11/19 01:03:07;;;;;;;10.15;3.50;;;;;;;3.78;100.00;94566.19;4988744;28;20046;-72
2022/11/19 01:05:33;;;;;;;9.50;3.60;;;;;;;3.76;100.00;94568.25;4991837;28;20034;-72
2022/11/19 01:07:58;;;;;;;6.90;3.58;;;;;;;3.66;100.00;94557.75;4992162;28;20042;-73
2022/11/19 01:10:24;;;;;;;8.82;3.72;;;;;;;3.82;100.00;94559.44;4990421;28;20053;-73
2022/11/19 01:15:33;;;;;;;14.75;4.18;;;;;;;3.70;100.00;94564.81;4991952;28;20045;-73
2022/11/19 01:17:59;;;;;;;11.32;4.18;;;;;;;3.70;100.00;94564.81;4992397;28;20046;-73
2022/11/19 01:20:25;;;;;;;8.93;4.03;;;;;;;3.73;100.00;94558.34;4986667;28;20039;-74
2022/11/19 01:22:50;;;;;;;9.35;4.05;;;;;;;3.81;100.00;94570.91;4991665;28;20101;-73
2022/11/19 01:25:16;;;;;;;14.25;4.30;;;;;;;3.80;100.00;94566.72;4986031;28;20508;-74
2022/11/19 01:27:41;;;;;;;10.65;4.03;;;;;;;3.84;100.00;94564.41;4985120;28;20515;-73
2022/11/19 01:30:08;;;;;;;11.48;3.72;;;;;;;3.91;100.00;94570.97;4974102;28;20034;-73
2022/11/19 01:32:33;;;;;;;10.90;3.78;;;;;;;3.86;100.00;94573.50;4991633;28;20045;-73
2022/11/19 01:34:59;;;;;;;8.88;4.10;;;;;;;3.88;100.00;94575.88;4982226;28;20118;-73
2022/11/19 01:37:25;;;;;;;12.43;3.90;;;;;;;3.89;100.00;94573.00;4980941;28;20046;-73
2022/11/19 01:39:50;;;;;;;9.73;5.13;;;;;;;3.92;100.00;94584.75;4991585;28;20093;-73
2022/11/19 01:45:31;;;;;;;10.15;3.80;;;;;;;3.90;100.00;94574.59;4988467;28;20043;-74
2022/11/19 01:48:05;;;;;;;8.93;3.72;;;;;;;3.93;100.00;94583.72;4991157;28;20455;-73
2022/11/19 01:50:33;;;;;;;9.52;4.20;;;;;;;3.96;100.00;94584.00;4991508;28;20047;-73
2022/11/19 01:52:59;;;;;;;15.55;4.65;;;;;;;4.04;100.00;94584.56;4968682;28;20602;-73
2022/11/19 01:55:26;;;;;;;11.55;3.97;;;;;;;4.03;100.00;94583.78;4977542;28;20493;-74
2022/11/19 01:57:56;;;;;;;9.07;4.20;;;;;;;4.06;100.00;94583.28;4989715;28;20482;-73
2022/11/19 02:00:22;;;;;;;12.23;4.30;;;;;;;4.04;100.00;94584.56;4991559;28;20073;-73
2022/11/19 02:02:47;;;;;;;7.90;4.30;;;;;;;3.99;100.00;94583.53;4990236;28;20633;-73
2022/11/19 02:05:14;;;;;;;12.57;3.85;;;;;;;4.04;100.00;94584.56;4987980;28;20116;-74
2022/11/19 02:07:43;;;;;;;10.77;4.25;;;;;;;3.97;100.00;94596.00;4973506;28;20046;-74
2022/11/19 02:10:10;;;;;;;15.98;3.90;;;;;;;4.03;100.00;94593.44;4991422;28;20058;-74
2022/11/19 02:12:46;;;;;;;13.07;3.67;;;;;;;4.04;100.00;94589.78;4977128;28;20513;-73
2022/11/19 02:15:31;;;;;;;8.68;3.42;;;;;;;4.13;100.00;94588.28;4971693;28;20516;-74
2022/11/19 02:18:00;;;;;;;9.13;4.15;;;;;;;4.08;100.00;94596.84;4987775;28;20046;-73
2022/11/19 02:20:40;;;;;;;6.45;3.53;;;;;;;4.11;100.00;94585.16;4981267;28;20511;-73
2022/11/19 02:23:20;;;;;;;6.80;3.33;;;;;;;4.13;100.00;94588.28;4989899;28;20034;-74
2022/11/19 02:26:32;;;;;;;10.43;3.55;;;;;;;4.04;100.00;94589.78;4987694;28;20042;-75
2022/11/19 02:29:16;;;;;;;9.70;3.05;;;;;;;4.08;100.00;94593.44;4983174;28;20050;-74
2022/11/19 02:31:57;;;;;;;9.05;3.47;;;;;;;4.09;100.00;94602.84;4985238;28;20046;-74
2022/11/19 02:34:40;;;;;;;11.73;3.83;;;;;;;4.07;100.00;94597.09;4990597;28;20042;-75
2022/11/19 02:37:12;;;;;;;10.75;3.72;;;;;;;4.03;100.00;94601.25;4989318;28;20038;-75
2022/11/19 02:39:52;;;;;;;10.35;4.03;;;;;;;4.05;100.00;94599.16;4989882;28;20042;-74
2022/11/19 02:42:29;;;;;;;9.95;4.55;;;;;;;4.05;100.00;94591.34;4988193;28;20100;-74
2022/11/19 02:45:01;;;;;;;9.40;3.90;;;;;;;4.03;100.00;94593.44;4966025;28;20038;-74
2022/11/19 02:47:32;;;;;;;12.88;3.60;;;;;;;4.04;100.00;94589.78;4971446;28;20042;-74
2022/11/19 02:50:06;;;;;;;8.75;4.03;;;;;;;4.04;100.00;94595.78;4990275;28;20046;-74
2022/11/19 02:52:32;;;;;;;7.55;3.22;;;;;;;4.10;100.00;94594.78;4990386;28;20475;-74
2022/11/19 02:54:57;;;;;;;9.63;3.30;;;;;;;4.08;100.00;94596.06;4987098;28;20046;-74
2022/11/19 02:57:23;;;;;;;7.53;3.80;;;;;;;4.07;100.00;94595.28;4977052;28;20038;-74
2022/11/19 03:05:47;;;;;;;8.27;3.45;;;;;;;4.05;100.00;94596.56;4990069;28;20061;-73
2022/11/19 03:08:13;;;;;;;8.80;3.63;;;;;;;4.09;100.00;94598.41;4989910;28;20046;-73
2022/11/19 03:11:11;;;;;;;8.93;3.47;;;;;;;4.14;100.00;94610.69;4994997;28;20050;-73
2022/11/19 03:16:40;;;;;;;5.70;3.00;;;;;;;4.12;100.00;94612.75;4996257;28;20046;-73
2022/11/19 03:19:45;;;;;;;5.90;2.60;;;;;;;4.09;100.00;94613.25;4994788;28;20035;-73
2022/11/19 03:22:20;;;;;;;5.30;2.95;;;;;;;4.05;100.00;94617.38;4991956;28;20108;-73
2022/11/19 03:25:17;;;;;;;8.80;3.47;;;;;;;4.07;100.00;94623.16;4984243;28;20042;-73
2022/11/19 03:27:53;;;;;;;5.57;2.78;;;;;;;4.08;100.00;94622.09;4987083;28;20069;-73
2022/11/19 03:30:19;;;;;;;9.45;2.80;;;;;;;4.09;100.00;94623.66;4996568;28;20046;-74
2022/11/19 03:32:58;;;;;;;5.47;2.30;;;;;;;4.14;100.00;94626.31;4996362;28;20125;-74
2022/11/19 03:35:29;;;;;;;7.93;2.58;;;;;;;4.08;100.00;94632.50;4988396;28;20085;-74
2022/11/19 03:38:00;;;;;;;4.68;2.40;;;;;;;4.11;100.00;94621.63;4995830;28;20038;-74
2022/11/19 03:40:29;;;;;;;6.93;2.55;;;;;;;4.15;100.00;94622.66;4996789;28;20042;-74
2022/11/19 03:42:56;;;;;;;5.68;2.63;;;;;;;4.10;100.00;94620.03;4972425;28;20046;-74
2022/11/19 03:45:26;;;;;;;4.50;2.30;;;;;;;4.10;100.00;94627.84;4980696;28;20066;-75
2022/11/19 03:47:53;;;;;;;4.93;2.33;;;;;;;4.07;100.00;94625.75;4986711;28;20417;-73
2022/11/19 03:50:41;;;;;;;7.22;2.60;;;;;;;4.06;100.00;94624.94;4977966;28;20064;-72
2022/11/19 03:53:07;;;;;;;7.32;2.45;;;;;;;4.08;100.00;94624.69;4985853;28;20042;-73
2022/11/19 03:55:41;;;;;;;5.35;2.55;;;;;;;4.06;100.00;94624.16;4989570;28;20676;-73
2022/11/19 03:58:09;;;;;;;6.13;2.40;;;;;;;4.11;100.00;94632.03;4970408;28;20314;-73
2022/11/19 04:00:36;;;;;;;4.00;2.10;;;;;;;4.06;100.00;94629.38;4996498;28;20038;-73
2022/11/19 04:03:02;;;;;;;5.25;2.10;;;;;;;4.05;100.00;94627.81;4995968;28;20046;-73
2022/11/19 04:05:28;;;;;;;5.60;2.25;;;;;;;3.99;100.00;94619.97;4983064;28;20050;-73
2022/11/19 04:07:53;;;;;;;5.13;2.20;;;;;;;4.01;100.00;94631.94;4986590;28;20420;-73
2022/11/19 04:10:19;;;;;;;5.32;2.33;;;;;;;3.99;100.00;94635.59;4996259;28;20057;-72
2022/11/19 04:12:44;;;;;;;6.45;2.30;;;;;;;3.98;100.00;94628.81;4995962;28;20035;-73
2022/11/19 04:15:11;;;;;;;4.75;2.17;;;;;;;3.93;100.00;94631.34;4982557;28;20067;-72
2022/11/19 04:17:37;;;;;;;5.70;2.40;;;;;;;3.94;100.00;94632.94;4987632;28;20510;-72
2022/11/19 04:20:04;;;;;;;7.03;2.30;;;;;;;3.96;100.00;94636.06;4996073;28;20118;-72
2022/11/19 04:22:30;;;;;;;5.78;2.33;;;;;;;3.96;100.00;94641.28;4976689;28;20046;-72
2022/11/19 04:24:55;;;;;;;4.45;2.03;;;;;;;4.04;100.00;94636.63;4983674;28;20064;-72
2022/11/19 04:27:21;;;;;;;5.63;2.28;;;;;;;3.96;100.00;94636.06;4992661;28;20097;-73
2022/11/19 04:29:46;;;;;;;3.60;2.20;;;;;;;3.98;100.00;94644.44;5005409;28;20061;-72
2022/11/19 04:32:12;;;;;;;5.55;2.40;;;;;;;3.97;100.00;94637.63;5001100;28;20042;-72
2022/11/19 04:34:38;;;;;;;4.30;1.88;;;;;;;3.98;100.00;94641.81;4987527;28;20078;-71
2022/11/19 04:37:03;;;;;;;4.85;1.90;;;;;;;4.03;100.00;94645.50;4966667;28;20057;-72
2022/11/19 04:39:29;;;;;;;4.85;2.00;;;;;;;3.98;100.00;94639.22;4993175;28;20046;-71
2022/11/19 04:41:54;;;;;;;6.18;2.20;;;;;;;3.85;100.00;94634.44;4990204;28;20065;-72
2022/11/19 04:44:20;;;;;;;3.58;1.90;;;;;;;3.98;100.00;94639.22;4973528;28;20070;-72
2022/11/19 04:46:45;;;;;;;4.07;1.83;;;;;;;3.91;100.00;94633.44;4992304;28;20043;-72
2022/11/19 04:49:11;;;;;;;4.82;2.03;;;;;;;3.86;100.00;94635.97;4993129;28;20417;-72
2022/11/19 04:51:36;;;;;;;4.75;1.80;;;;;;;3.81;100.00;94639.34;4991504;28;20551;-72
2022/11/19 04:54:02;;;;;;;4.00;2.00;;;;;;;3.74;100.00;94648.41;4970668;28;20041;-72
2022/11/19 04:56:27;;;;;;;6.80;2.28;;;;;;;3.66;100.00;94635.81;4983169;28;20042;-71
2022/11/19 04:58:53;;;;;;;4.57;1.83;;;;;;;3.70;100.00;94642.09;4992484;28;20048;-71
2022/11/19 05:01:19;;;;;;;4.28;2.03;;;;;;;3.69;100.00;94645.72;4992259;28;20550;-71
2022/11/19 05:03:46;;;;;;;7.53;2.08;;;;;;;3.70;100.00;94647.31;4989933;28;20042;-71
2022/11/19 05:06:11;;;;;;;4.55;1.88;;;;;;;3.68;100.00;94646.75;4978132;28;20043;-71
2022/11/19 05:08:37;;;;;;;3.80;2.00;;;;;;;3.63;100.00;94647.50;4992353;28;20054;-71
2022/11/19 05:11:03;;;;;;;3.63;2.10;;;;;;;3.64;100.00;94646.47;4992324;28;20038;-71
2022/11/19 05:13:29;;;;;;;8.88;2.42;;;;;;;3.67;100.00;94647.81;4988165;28;20052;-71
2022/11/19 05:15:54;;;;;;;4.35;2.00;;;;;;;3.69;100.00;94650.94;4992239;28;20645;-71
2022/11/19 05:18:20;;;;;;;7.10;2.20;;;;;;;3.69;100.00;94661.34;4991646;28;20038;-71
2022/11/19 05:20:46;;;;;;;5.93;2.10;;;;;;;3.67;100.00;94650.41;4992345;28;20496;-72
2022/11/19 05:23:12;;;;;;;5.82;2.38;;;;;;;3.71;100.00;94665.28;4980016;28;20098;-71
2022/11/19 05:25:37;;;;;;;5.60;2.15;;;;;;;3.67;100.00;94674.59;4979934;28;20519;-71
2022/11/19 05:28:03;;;;;;;3.78;2.00;;;;;;;3.72;100.00;94668.66;4991502;28;20049;-72
2022/11/19 05:30:29;;;;;;;5.28;2.13;;;;;;;3.67;100.00;94664.19;4992193;28;20042;-71
2022/11/19 05:32:54;;;;;;;4.00;2.05;;;;;;;3.73;100.00;94670.22;4990828;28;20046;-71
2022/11/19 05:35:20;;;;;;;4.07;2.03;;;;;;;3.63;100.00;94674.31;4990609;28;20047;-73
2022/11/19 05:37:49;;;;;;;4.93;2.47;;;;;;;3.65;100.00;94671.47;4991418;28;20117;-72
2022/11/19 05:40:14;;;;;;;9.30;3.10;;;;;;;3.68;100.00;94676.19;4991645;28;20677;-72
2022/11/19 05:42:40;;;;;;;5.93;2.47;;;;;;;3.67;100.00;94668.63;4992094;28;20054;-72
2022/11/19 05:45:06;;;;;;;8.05;2.80;;;;;;;3.66;100.00;94670.41;4986599;28;20050;-73
2022/11/19 05:47:32;;;;;;;7.20;2.72;;;;;;;3.61;100.00;94663.34;4991481;28;20042;-72
2022/11/19 05:49:57;;;;;;;5.50;2.50;;;;;;;3.62;100.00;94672.75;4991958;28;20050;-72
2022/11/19 05:52:23;;;;;;;5.45;2.63;;;;;;;3.60;100.00;94669.59;4991090;28;20038;-72
2022/11/19 05:54:49;;;;;;;10.50;2.95;;;;;;;3.61;100.00;94673.75;4988921;28;20585;-73
2022/11/19 05:57:14;;;;;;;11.73;2.90;;;;;;;3.60;100.00;94669.59;4986696;28;20065;-72
2022/11/19 05:59:40;;;;;;;8.60;3.00;;;;;;;3.54;100.00;94664.59;4990902;28;20563;-72
2022/11/19 06:02:05;;;;;;;4.95;2.80;;;;;;;3.63;100.00;94674.31;4991138;28;20046;-72
2022/11/19 06:04:31;;;;;;;9.23;2.58;;;;;;;3.60;100.00;94672.19;4986113;28;20042;-73
2022/11/19 06:06:57;;;;;;;7.45;2.83;;;;;;;3.58;100.00;94674.25;4990726;28;20089;-73
2022/11/19 06:09:22;;;;;;;8.30;2.83;;;;;;;3.55;100.00;94672.16;4991022;28;20046;-72
2022/11/19 06:11:49;;;;;;;8.38;2.42;;;;;;;3.53;100.00;94669.00;4990615;28;20464;-73
2022/11/19 06:14:23;;;;;;;6.95;2.88;;;;;;;3.49;100.00;94667.91;4981750;28;20058;-73
2022/11/19 06:16:50;;;;;;;;;;;;;;;3.53;100.00;94673.41;4991040;28;20053;-73
2022/11/19 06:19:16;;;;;;;4.65;2.28;;;;;;;3.56;100.00;94673.72;4991004;28;19986;-73
2022/11/19 06:21:42;;;;;;;6.07;2.60;;;;;;;3.53;100.00;94678.63;4985478;28;20097;-73
2022/11/19 06:24:07;;;;;;;19.45;3.47;;;;;;;3.54;100.00;94680.22;4990528;28;20042;-73
2022/11/19 06:26:33;;;;;;;5.82;2.80;;;;;;;3.64;100.00;94681.06;4973479;28;20075;-73
2022/11/19 06:28:59;;;;;;;6.97;2.40;;;;;;;3.64;100.00;94680.31;4990602;28;20057;-73
2022/11/19 06:31:24;;;;;;;10.50;2.47;;;;;;;3.70;100.00;94683.75;4991227;28;20053;-72
2022/11/19 06:33:52;;;;;;;6.97;2.83;;;;;;;3.67;100.00;94679.03;4989980;28;20046;-73
2022/11/19 06:36:18;;;;;;;4.65;2.72;;;;;;;3.68;100.00;94675.38;4978402;28;20038;-73
2022/11/19 06:38:44;;;;;;;6.05;2.42;;;;;;;3.79;100.00;94687.47;4990264;28;20411;-73
2022/11/19 06:41:09;;;;;;;6.22;2.38;;;;;;;3.63;100.00;94684.72;4990491;28;20043;-73
2022/11/19 06:43:35;;;;;;;9.95;2.30;;;;;;;3.67;100.00;94689.44;4990019;28;20039;-74
2022/11/19 06:46:00;;;;;;;6.78;2.15;;;;;;;3.68;100.00;94696.19;4982870;28;20117;-74
2022/11/19 06:48:26;;;;;;;3.45;2.10;;;;;;;3.71;100.00;94693.91;4987396;28;20042;-74
2022/11/19 06:50:52;;;;;;;4.70;2.17;;;;;;;3.66;100.00;94693.06;4990613;28;20516;-74
2022/11/19 06:53:17;;;;;;;5.88;2.30;;;;;;;3.76;100.00;94698.38;4988695;28;20045;-73
2022/11/19 06:55:43;;;;;;;3.40;1.83;;;;;;;3.71;100.00;94700.94;4981647;28;20400;-73
2022/11/19 06:58:08;;;;;;;8.50;2.00;;;;;;;3.73;100.00;94704.06;4990245;28;20058;-73
2022/11/19 07:00:35;;;;;;;4.25;2.13;;;;;;;3.63;100.00;94689.94;4990611;28;20046;-73
2022/11/19 07:03:01;;;;;;;3.92;1.90;;;;;;;3.67;100.00;94705.06;4989696;28;20041;-73
2022/11/19 07:05:27;;;;;;;4.72;2.08;;;;;;;3.72;100.00;94699.88;4981456;28;20102;-73
2022/11/19 07:07:52;;;;;;;3.80;1.92;;;;;;;3.70;100.00;94710.53;4979812;28;20451;-73
2022/11/19 07:10:18;;;;;;;5.32;2.22;;;;;;;3.76;100.00;94703.56;4992428;28;20134;-73
2022/11/19 07:12:43;;;;;;;8.10;2.22;;;;;;;3.82;100.00;94713.00;4990415;28;20045;-71
2022/11/19 07:15:10;;;;;;;2.70;1.80;;;;;;;3.77;100.00;94710.34;4977830;28;20050;-76
2022/11/19 07:17:36;;;;;;;6.90;2.17;;;;;;;3.78;100.00;94717.13;4990045;28;20420;-71
2022/11/19 07:20:03;;;;;;;3.78;1.80;;;;;;;3.73;100.00;94709.28;4989850;28;20039;-72
2022/11/19 07:22:29;;;;;;;7.10;1.90;;;;;;;3.71;100.00;94721.75;4989729;28;20046;-70
2022/11/19 07:24:54;;;;;;;3.20;1.88;;;;;;;3.91;100.00;94721.94;4987250;28;20093;-69
2022/11/19 07:27:20;;;;;;;8.18;2.63;;;;;;;3.91;100.00;94729.75;4987340;28;20055;-73
2022/11/19 07:29:45;;;;;;;3.40;1.67;;;;;;;3.80;100.00;94723.66;4990303;28;20043;-69
2022/11/19 07:32:11;;;;;;;4.80;1.63;;;;;;;3.86;100.00;94724.47;4989821;28;20054;-69
2022/11/19 07:34:36;;;;;;;4.32;2.15;;;;;;;3.98;100.00;94726.97;4990460;28;20397;-69
2022/11/19 07:37:02;;;;;;;6.68;2.97;;;;;;;4.07;100.00;94724.69;4988575;28;20500;-68
2022/11/19 07:39:28;;;;;;;8.10;3.65;;;;;;;4.14;100.00;94730.47;4989777;28;20047;-69
2022/11/19 07:44:38;;;;;;;7.20;2.40;;;;;;;4.32;100.00;94737.13;4982110;28;20042;-69
2022/11/19 07:47:05;;;;;;;7.90;2.50;;;;;;;4.45;100.00;94741.94;4988899;28;20046;-69
2022/11/19 07:49:31;;;;;;;4.30;2.08;;;;;;;4.40;100.00;94743.72;4992422;28;20096;-69
2022/11/19 07:51:56;;;;;;;4.25;2.13;;;;;;;4.40;100.00;94743.72;4981852;28;20089;-70
2022/11/19 07:54:22;;;;;;;3.05;1.95;;;;;;;4.41;100.00;94742.66;4982321;28;20038;-69
2022/11/19 07:56:48;;;;;;;4.85;2.25;;;;;;;4.43;100.00;94732.78;4985654;28;20043;-70
2022/11/19 07:59:14;;;;;;;3.28;2.00;;;;;;;4.45;100.00;94735.91;4976116;28;20038;-69
2022/11/19 08:01:39;;;;;;;4.60;2.28;;;;;;;4.45;100.00;94736.72;4993863;28;20050;-69
2022/11/19 08:04:05;;;;;;;7.15;2.50;;;;;;;4.43;100.00;94738.00;4984860;28;20054;-71
2022/11/19 08:06:33;;;;;;;4.25;2.25;;;;;;;4.44;100.00;94739.56;4981893;28;20038;-70
2022/11/19 08:08:59;;;;;;;4.15;2.22;;;;;;;4.44;100.00;94735.16;4992355;28;20046;-70
2022/11/19 08:11:24;;;;;;;6.22;2.40;;;;;;;4.41;100.00;94740.06;4993243;28;20038;-71
2022/11/19 08:13:51;;;;;;;5.47;2.50;;;;;;;4.48;100.00;94741.44;4977741;28;20049;-70
2022/11/19 08:19:03;;;;;;;7.87;2.50;;;;;;;4.51;100.00;94745.34;4988872;28;20529;-69
2022/11/19 08:21:28;;;;;;;6.03;2.42;;;;;;;4.57;100.00;94749.56;4993769;28;20295;-69
2022/11/19 08:23:54;;;;;;;5.25;2.22;;;;;;;4.74;100.00;94746.03;4974800;28;20122;-69
2022/11/19 08:26:19;;;;;;;6.45;2.30;;;;;;;4.94;100.00;94738.34;4979159;28;20042;-69
2022/11/19 08:28:45;;;;;;;6.05;2.30;;;;;;;5.25;100.00;94743.72;4993198;28;20053;-69
2022/11/19 08:31:10;;;;;;;8.68;2.30;;;;;;;5.50;100.00;94748.25;4993567;28;20100;-69
2022/11/19 08:33:36;;;;;;;4.78;2.10;;;;;;;5.79;100.00;94736.59;4992820;28;20649;-69
2022/11/19 08:36:02;;;;;;;5.40;1.90;;;;;;;5.86;100.00;94742.34;4991228;28;20622;-68
2022/11/19 08:38:28;;;;;;;3.53;1.85;;;;;;;5.87;100.00;94738.69;4992788;28;20065;-69
2022/11/19 08:42:58;;;;;;;4.07;1.75;;;;;;;5.97;100.00;94743.97;4993267;28;20782;-68
2022/11/19 08:43:39;;;;;;;5.47;2.17;;;;;;;6.03;100.00;94736.91;4990806;28;20054;-69
2022/11/19 08:46:05;;;;;;;8.88;2.15;;;;;;;6.04;100.00;94736.66;4992404;28;20053;-69
2022/11/19 08:48:31;;;;;;;3.92;2.15;;;;;;;6.21;100.00;94738.25;4991929;28;20100;-71
2022/11/19 08:50:57;;;;;;;4.72;2.17;;;;;;;6.18;100.00;94738.78;4990660;28;20050;-69
2022/11/19 08:53:23;;;;;;;3.75;2.15;;;;;;;6.05;100.00;94740.84;4986122;28;20117;-69
2022/11/19 08:55:51;;;;;;;4.85;1.92;;;;;;;5.99;100.00;94747.13;4991270;28;20061;-69
2022/11/19 08:58:17;;;;;;;3.60;1.83;;;;;;;6.16;100.00;94746.09;4994306;28;20039;-69
2022/11/19 09:00:42;;;;;;;7.03;2.22;;;;;;;6.05;100.00;94746.06;4994609;28;20057;-69
2022/11/19 09:03:08;;;;;;;4.30;2.08;;;;;;;6.19;100.00;94746.38;4993777;28;20496;-69
2022/11/19 09:05:33;;;;;;;5.65;2.20;;;;;;;6.39;100.00;94745.59;4990084;28;20104;-69
2022/11/19 09:07:59;;;;;;;5.85;2.13;;;;;;;6.29;100.00;94745.56;4996049;28;20074;-69
2022/11/19 09:10:24;;;;;;;5.22;2.08;;;;;;;6.41;100.00;94748.72;4996611;28;20034;-69
2022/11/19 09:12:51;;;;;;;5.80;2.40;;;;;;;6.42;100.00;94759.94;5015689;28;20026;-68
2022/11/19 09:15:17;;;;;;;3.10;1.95;;;;;;;6.52;100.00;94753.94;5017605;28;20023;-68
2022/11/19 09:17:42;;;;;;;8.18;1.98;;;;;;;6.71;100.00;94756.81;5017355;28;20044;-68
2022/11/19 09:20:08;;;;;;;3.60;1.90;;;;;;;6.73;100.00;94758.13;5017992;28;20097;-68
2022/11/19 09:22:34;;;;;;;3.75;1.90;;;;;;;6.61;100.00;94762.84;5018249;28;20045;-68
2022/11/19 09:25:00;;;;;;;6.13;1.92;;;;;;;6.61;100.00;94757.63;5015556;28;20046;-68
2022/11/19 09:27:26;;;;;;;3.10;1.90;;;;;;;6.53;100.00;94756.28;5014823;28;20038;-68
2022/11/19 09:29:51;;;;;;;5.38;1.90;;;;;;;6.56;100.00;94760.22;5018100;28;20053;-69
2022/11/19 09:32:17;;;;;;;3.53;2.03;;;;;;;6.45;100.00;94758.66;5017876;28;20053;-69
2022/11/19 09:34:42;;;;;;;2.47;1.30;;;;;;;6.45;100.00;94758.66;5012365;28;20052;-69
2022/11/19 09:37:08;;;;;;;5.03;2.13;;;;;;;6.41;100.00;94764.41;5002112;28;20415;-69
2022/11/19 09:39:34;;;;;;;2.70;1.58;;;;;;;6.57;100.00;94767.78;4992496;28;20042;-69
2022/11/19 09:42:18;;;;;;;4.93;1.60;;;;;;;6.47;100.00;94772.25;4986376;28;20113;-73
2022/11/19 09:45:03;;;;;;;2.47;1.45;;;;;;;6.56;100.00;94770.69;4990237;28;20054;-70
2022/11/19 09:47:34;;;;;;;2.42;1.60;;;;;;;6.51;100.00;94773.31;4988810;28;20050;-70
2022/11/19 09:50:17;;;;;;;3.63;2.00;;;;;;;6.50;100.00;94787.41;4991035;28;20061;-69
2022/11/19 09:52:48;;;;;;;4.57;1.92;;;;;;;6.53;100.00;94786.88;4981850;28;20038;-68
2022/11/19 09:55:25;;;;;;;2.22;1.48;;;;;;;6.54;100.00;94789.25;4982602;28;20077;-69
2022/11/19 09:57:54;;;;;;;3.92;1.58;;;;;;;6.51;100.00;94789.00;4980357;28;20038;-71
2022/11/19 10:00:27;;;;;;;3.40;1.58;;;;;;;6.55;100.00;94790.81;4992306;28;20117;-70
2022/11/19 10:02:54;;;;;;;3.88;1.60;;;;;;;6.53;100.00;94782.44;4971527;28;20513;-70
2022/11/19 10:05:47;;;;;;;3.97;1.90;;;;;;;6.48;100.00;94789.50;4975152;28;20046;-70
2022/11/19 10:08:34;;;;;;;3.78;2.00;;;;;;;6.53;100.00;94781.66;4994539;28;20100;-69
2022/11/19 10:11:32;;;;;;;2.72;1.48;;;;;;;6.58;100.00;94792.13;4995990;28;20046;-69
2022/11/19 10:14:19;;;;;;;2.97;1.70;;;;;;;6.56;100.00;94786.38;4983422;28;20054;-69
2022/11/19 10:16:47;;;;;;;2.33;1.65;;;;;;;6.49;100.00;94783.22;4985563;28;20047;-68
2022/11/19 10:19:31;;;;;;;2.88;1.88;;;;;;;6.33;100.00;94783.19;4973755;28;20470;-70
2022/11/19 10:22:14;;;;;;;4.63;1.73;;;;;;;6.36;100.00;94787.91;4975776;28;20073;-69
2022/11/19 10:25:14;;;;;;;4.60;1.92;;;;;;;6.32;100.00;94784.25;4974240;28;20053;-68
2022/11/19 10:27:55;;;;;;;8.93;1.83;;;;;;;6.33;100.00;94790.28;4991243;28;20048;-69
2022/11/19 10:30:27;;;;;;;2.55;1.80;;;;;;;6.28;100.00;94785.81;4991476;28;20039;-69
2022/11/19 10:33:00;;;;;;;5.90;2.00;;;;;;;6.30;100.00;94783.72;4990735;28;20113;-68
2022/11/19 10:35:34;;;;;;;4.63;1.88;;;;;;;6.41;100.00;94777.47;4972113;28;20101;-70
2022/11/19 10:38:14;;;;;;;3.77;1.97;;;;;;;6.51;100.00;94783.75;4982902;28;20038;-69
2022/11/19 10:40:45;;;;;;;4.43;2.20;;;;;;;6.38;100.00;94780.59;4990378;28;20560;-74
2022/11/19 10:43:35;;;;;;;7.20;2.20;;;;;;;6.42;100.00;94786.09;4992733;28;20121;-74
2022/11/19 10:46:05;;;;;;;4.78;2.17;;;;;;;6.39;100.00;94782.19;4980606;28;20500;-70
2022/11/19 10:48:41;;;;;;;8.57;2.25;;;;;;;6.35;100.00;94781.13;4989473;28;20050;-70
2022/11/19 10:51:32;;;;;;;4.43;1.90;;;;;;;6.37;100.00;94773.03;4991739;28;20683;-73
2022/11/19 10:54:01;;;;;;;6.05;2.20;;;;;;;6.43;100.00;94771.19;4979808;28;20057;-71
2022/11/19 10:56:37;;;;;;;4.70;2.25;;;;;;;6.50;100.00;94766.50;4971969;28;20054;-70
2022/11/19 10:59:17;;;;;;;3.63;1.92;;;;;;;6.54;100.00;94759.72;4990728;28;20407;-70
2022/11/19 11:01:46;;;;;;;5.10;2.08;;;;;;;6.55;100.00;94763.88;4990270;28;20085;-70
2022/11/19 11:04:17;;;;;;;3.10;1.80;;;;;;;6.55;100.00;94753.41;4990014;28;20078;-70
2022/11/19 11:06:56;;;;;;;4.00;2.42;;;;;;;6.60;100.00;94753.44;4989694;28;20554;-70
2022/11/19 11:09:30;;;;;;;4.45;2.05;;;;;;;6.64;100.00;94758.91;4989576;28;20049;-70
2022/11/19 11:14:52;;;;;;;4.20;2.05;;;;;;;6.80;100.00;94757.09;4990438;28;20065;-69
2022/11/19 11:17:24;;;;;;;4.25;2.15;;;;;;;6.83;100.00;94743.47;4990652;28;20054;-75
2022/11/19 11:20:18;;;;;;;4.82;2.10;;;;;;;6.84;100.00;94735.38;4990251;28;20047;-72
2022/11/19 11:22:47;;;;;;;3.85;1.80;;;;;;;7.02;100.00;94736.63;4969105;28;20047;-72
2022/11/19 11:25:24;;;;;;;3.85;1.80;;;;;;;7.22;100.00;94733.16;4988619;28;20042;-72
2022/11/19 11:28:26;;;;;;;6.82;1.98;;;;;;;7.37;100.00;94740.19;4984122;28;20067;-73
2022/11/19 11:30:57;;;;;;;3.95;2.17;;;;;;;7.62;100.00;94744.53;4945066;28;20051;-72
2022/11/19 11:33:23;;;;;;;3.25;2.10;;;;;;;7.75;100.00;94743.16;4989667;28;20054;-70
2022/11/19 11:35:49;;;;;;;4.63;2.00;;;;;;;7.60;100.00;94745.84;4981399;28;20066;-69
2022/11/19 11:38:21;;;;;;;4.93;2.25;;;;;;;7.46;100.00;94735.97;4995770;28;20050;-69
2022/11/19 11:41:01;;;;;;;6.30;2.22;;;;;;;7.32;100.00;94729.75;4996287;28;20073;-70
2022/11/19 11:43:29;;;;;;;4.05;1.90;;;;;;;7.41;100.00;94733.38;4994749;28;20038;-70
2022/11/19 11:45:57;;;;;;;5.25;2.20;;;;;;;7.95;100.00;94731.78;5000276;28;20045;-69
2022/11/19 11:48:23;;;;;;;4.30;2.20;;;;;;;7.69;100.00;94723.31;5000103;28;20046;-69
2022/11/19 11:50:48;;;;;;;4.68;1.90;;;;;;;7.52;100.00;94730.72;4998442;28;20134;-70
2022/11/19 11:53:26;;;;;;;5.78;2.40;;;;;;;7.46;100.00;94715.03;4989990;28;20039;-71
2022/11/19 11:55:57;;;;;;;8.57;2.08;;;;;;;7.52;100.00;94717.63;4983201;28;20051;-69
2022/11/19 11:58:32;;;;;;;6.03;2.20;;;;;;;7.54;100.00;94710.28;5000255;28;20038;-70
2022/11/19 12:01:17;;;;;;;5.28;2.70;;;;;;;7.37;100.00;94706.19;4973340;28;20042;-70
2022/11/19 12:03:56;;;;;;;3.92;2.15;;;;;;;7.29;100.00;94714.56;4991493;28;20489;-69
2022/11/19 12:06:25;;;;;;;4.55;2.25;;;;;;;7.80;100.00;94714.34;4997100;28;20070;-71
2022/11/19 12:09:20;;;;;;;6.38;2.30;;;;;;;8.40;100.00;94726.50;5001208;28;20279;-68